Time;durP1;ratioP1;P1;durP2;ratioP2;P2;SDS_P1;SDS_P2;PMS_P1;PMS_P2;Temp;Humidity;BMP_temperature;BMP_pressure;BME280_temperature;BME280_humidity;BME280_pressure;Samples;Min_cycle;Max_cycle;Signal;HPM_P1;HPM_P2
2021/01/08 00:01:07;;;;;;;68.88;42.70;;;;;;;;;;5094619;28;20027;-63
2021/01/08 00:03:33;;;;;;;67.97;40.60;;;;;;;;;;5094462;28;20025;-64
2021/01/08 00:06:00;;;;;;;69.13;48.80;;;;;;;;;;5094439;28;20032;-63
2021/01/08 00:08:26;;;;;;;82.72;44.40;;;;;;;;;;5094285;28;20028;-62
2021/01/08 00:10:52;;;;;;;71.00;40.05;;;;;;;;;;5093779;28;20032;-63
2021/01/08 00:13:18;;;;;;;64.65;40.42;;;;;;;;;;5094017;28;20077;-69
2021/01/08 00:15:45;;;;;;;71.25;36.55;;;;;;;;;;5094098;28;20087;-70
2021/01/08 00:18:11;;;;;;;56.65;35.08;;;;;;;;;;5094248;28;20016;-70
2021/01/08 00:20:37;;;;;;;69.38;36.38;;;;;;;;;;5092840;28;20024;-69
2021/01/08 00:23:03;;;;;;;77.40;41.15;;;;;;;;;;5093356;28;20472;-68
2021/01/08 00:25:30;;;;;;;75.88;38.40;;;;;;;;;;5093990;28;20032;-66
2021/01/08 00:27:56;;;;;;;61.70;40.88;;;;;;;;;;5093915;28;20023;-63
2021/01/08 00:30:22;;;;;;;83.65;38.90;;;;;;;;;;5092495;28;20085;-66
2021/01/08 00:32:49;;;;;;;75.57;36.90;;;;;;;;;;5093212;28;20135;-73
2021/01/08 00:35:15;;;;;;;52.33;33.75;;;;;;;;;;5093933;28;20836;-64
2021/01/08 00:37:41;;;;;;;60.60;34.70;;;;;;;;;;5093728;28;20020;-65
2021/01/08 00:40:08;;;;;;;43.72;35.08;;;;;;;;;;5093694;28;20044;-68
2021/01/08 00:42:35;;;;;;;62.60;27.08;;;;;;;;;;5086905;28;20043;-65
2021/01/08 00:45:01;;;;;;;56.17;30.42;;;;;;;;;;5082495;28;20020;-69
2021/01/08 00:47:27;;;;;;;59.90;27.02;;;;;;;;;;5084852;28;20024;-67
2021/01/08 00:49:54;;;;;;;42.17;30.27;;;;;;;;;;5080580;28;20043;-63
2021/01/08 00:52:20;;;;;;;50.45;28.02;;;;;;;;;;5085467;28;20043;-59
2021/01/08 00:54:48;;;;;;;62.17;26.60;;;;;;;;;;5082794;28;20068;-63
2021/01/08 00:57:15;;;;;;;47.03;27.27;;;;;;;;;;5082054;28;20457;-63
2021/01/08 00:59:41;;;;;;;49.92;25.92;;;;;;;;;;5082656;28;20021;-59
2021/01/08 01:02:07;;;;;;;42.58;25.85;;;;;;;;;;5083666;28;20047;-59
2021/01/08 01:04:34;;;;;;;48.00;28.48;;;;;;;;;;5081733;28;20012;-59
2021/01/08 01:07:00;;;;;;;51.53;25.92;;;;;;;;;;5090193;28;20035;-59
2021/01/08 01:09:26;;;;;;;44.88;25.55;;;;;;;;;;5093124;28;20024;-59
2021/01/08 01:11:53;;;;;;;47.10;25.42;;;;;;;;;;5092798;28;20397;-61
2021/01/08 01:14:19;;;;;;;44.28;26.23;;;;;;;;;;5077408;28;20070;-62
2021/01/08 01:16:45;;;;;;;34.08;19.92;;;;;;;;;;5082844;28;20561;-65
2021/01/08 01:19:11;;;;;;;51.80;25.77;;;;;;;;;;5080676;28;20017;-70
2021/01/08 01:21:38;;;;;;;47.83;23.90;;;;;;;;;;5082986;28;20020;-70
2021/01/08 01:24:05;;;;;;;39.95;21.15;;;;;;;;;;5088346;28;20032;-59
2021/01/08 01:26:31;;;;;;;39.30;23.90;;;;;;;;;;5075429;28;20024;-55
2021/01/08 01:28:57;;;;;;;39.17;21.33;;;;;;;;;;5073260;28;20052;-69
2021/01/08 01:31:23;;;;;;;36.92;20.23;;;;;;;;;;5072358;28;20033;-56
2021/01/08 01:33:50;;;;;;;37.08;20.58;;;;;;;;;;5072310;28;20444;-55
2021/01/08 01:36:17;;;;;;;31.95;18.52;;;;;;;;;;5072337;28;20028;-59
2021/01/08 01:38:44;;;;;;;37.55;22.95;;;;;;;;;;5072181;28;20052;-57
2021/01/08 01:41:10;;;;;;;31.38;18.08;;;;;;;;;;5072075;28;20063;-55
2021/01/08 01:43:36;;;;;;;21.25;15.63;;;;;;;;;;5072151;28;20021;-58
2021/01/08 01:46:04;;;;;;;24.65;16.80;;;;;;;;;;5072206;28;20390;-57
2021/01/08 01:48:30;;;;;;;40.33;16.65;;;;;;;;;;5072029;28;20543;-53
2021/01/08 01:50:56;;;;;;;29.77;16.30;;;;;;;;;;5072142;28;20036;-59
2021/01/08 01:53:23;;;;;;;29.35;19.85;;;;;;;;;;5072159;28;20028;-58
2021/01/08 01:55:50;;;;;;;26.10;17.15;;;;;;;;;;5072176;28;20032;-59
2021/01/08 01:58:17;;;;;;;32.63;15.93;;;;;;;;;;5072073;28;20031;-59
2021/01/08 02:00:43;;;;;;;25.25;15.38;;;;;;;;;;5071957;28;20480;-55
2021/01/08 02:03:10;;;;;;;28.42;19.45;;;;;;;;;;5072086;28;20516;-55
2021/01/08 02:05:36;;;;;;;32.38;17.33;;;;;;;;;;5071655;28;20025;-53
2021/01/08 02:08:13;;;;;;;42.97;20.05;;;;;;;;;;5084939;28;20032;-66
2021/01/08 02:10:44;;;;;;;26.80;16.05;;;;;;;;;;5082278;28;20063;-66
2021/01/08 02:13:13;;;;;;;28.42;14.30;;;;;;;;;;5080146;28;20056;-69
2021/01/08 02:15:40;;;;;;;23.63;14.98;;;;;;;;;;5080423;28;20501;-68
2021/01/08 02:18:06;;;;;;;26.30;14.18;;;;;;;;;;5073828;28;20350;-63
2021/01/08 02:20:33;;;;;;;29.80;15.95;;;;;;;;;;5071700;28;20082;-57
2021/01/08 02:23:04;;;;;;;27.58;18.40;;;;;;;;;;5071782;28;20619;-66
2021/01/08 02:25:31;;;;;;;25.33;16.88;;;;;;;;;;5071617;28;20028;-59
2021/01/08 02:28:03;;;;;;;25.05;14.40;;;;;;;;;;5071797;28;20017;-62
2021/01/08 02:30:30;;;;;;;30.50;14.85;;;;;;;;;;5071604;28;20035;-65
2021/01/08 02:32:57;;;;;;;27.52;19.77;;;;;;;;;;5071586;28;20024;-62
2021/01/08 02:35:23;;;;;;;22.25;12.63;;;;;;;;;;5071749;28;20094;-63
2021/01/08 02:37:50;;;;;;;34.17;18.00;;;;;;;;;;5071576;28;20212;-64
2021/01/08 02:40:17;;;;;;;21.48;13.13;;;;;;;;;;5071692;28;20033;-61
2021/01/08 02:42:45;;;;;;;29.35;15.30;;;;;;;;;;5071339;28;20036;-61
2021/01/08 02:45:12;;;;;;;22.52;15.30;;;;;;;;;;5071455;28;20354;-55
2021/01/08 02:47:38;;;;;;;34.33;15.48;;;;;;;;;;5071632;28;20017;-66
2021/01/08 02:50:05;;;;;;;30.95;17.05;;;;;;;;;;5071534;28;20031;-69
2021/01/08 02:52:32;;;;;;;38.72;16.90;;;;;;;;;;5071530;28;20067;-71
2021/01/08 02:54:58;;;;;;;41.60;18.35;;;;;;;;;;5071388;28;20477;-72
2021/01/08 02:57:26;;;;;;;41.35;19.33;;;;;;;;;;5071417;28;20096;-70
2021/01/08 02:59:55;;;;;;;41.97;18.00;;;;;;;;;;5071407;28;20024;-61
2021/01/08 03:02:22;;;;;;;36.38;18.38;;;;;;;;;;5079882;28;20034;-63
2021/01/08 03:04:48;;;;;;;28.05;14.90;;;;;;;;;;5091362;28;20036;-58
2021/01/08 03:07:18;;;;;;;35.55;16.17;;;;;;;;;;5082040;28;20052;-56
2021/01/08 03:09:44;;;;;;;28.38;15.23;;;;;;;;;;5071275;28;20059;-57
2021/01/08 03:12:14;;;;;;;24.85;15.75;;;;;;;;;;5071126;28;20037;-58
2021/01/08 03:14:41;;;;;;;34.42;16.13;;;;;;;;;;5071246;28;20097;-62
2021/01/08 03:17:07;;;;;;;28.23;15.15;;;;;;;;;;5071305;28;20048;-56
2021/01/08 03:19:34;;;;;;;26.02;15.00;;;;;;;;;;5075013;28;20020;-62
2021/01/08 03:22:00;;;;;;;22.02;17.30;;;;;;;;;;5074969;28;20028;-61
2021/01/08 03:24:26;;;;;;;20.55;17.77;;;;;;;;;;5074742;28;20028;-52
2021/01/08 03:26:52;;;;;;;22.38;12.90;;;;;;;;;;5074815;28;20078;-55
2021/01/08 03:29:19;;;;;;;30.02;17.42;;;;;;;;;;5074917;28;20048;-59
2021/01/08 03:31:45;;;;;;;25.17;13.88;;;;;;;;;;5082624;28;20099;-61
2021/01/08 03:34:11;;;;;;;20.15;12.63;;;;;;;;;;5083318;28;20021;-61
2021/01/08 03:36:38;;;;;;;30.15;17.30;;;;;;;;;;5084582;28;20074;-61
2021/01/08 03:39:04;;;;;;;21.10;14.52;;;;;;;;;;5084133;28;20017;-61
2021/01/08 03:41:30;;;;;;;34.45;14.70;;;;;;;;;;5077948;28;20061;-56
2021/01/08 03:43:57;;;;;;;28.00;17.60;;;;;;;;;;5074381;28;20067;-52
2021/01/08 03:46:23;;;;;;;24.17;13.82;;;;;;;;;;5074436;28;20195;-59
2021/01/08 03:48:49;;;;;;;31.30;20.15;;;;;;;;;;5074520;28;20025;-56
2021/01/08 03:51:16;;;;;;;30.98;17.20;;;;;;;;;;5091788;28;20032;-62
2021/01/08 03:53:42;;;;;;;29.38;16.02;;;;;;;;;;5094650;28;20099;-56
2021/01/08 03:56:08;;;;;;;25.15;15.50;;;;;;;;;;5093045;28;20476;-63
2021/01/08 03:58:35;;;;;;;38.45;18.27;;;;;;;;;;5084842;28;20024;-60
2021/01/08 04:01:01;;;;;;;41.53;18.27;;;;;;;;;;5083012;28;20786;-61
2021/01/08 04:03:27;;;;;;;30.70;16.48;;;;;;;;;;5091710;28;20111;-65
2021/01/08 04:05:53;;;;;;;31.27;16.10;;;;;;;;;;5093483;28;20028;-62
2021/01/08 04:08:20;;;;;;;47.58;20.83;;;;;;;;;;5093791;28;20028;-60
2021/01/08 04:10:46;;;;;;;24.30;16.02;;;;;;;;;;5094260;28;20461;-64
2021/01/08 04:13:12;;;;;;;35.95;20.08;;;;;;;;;;5093981;28;20035;-59
2021/01/08 04:15:39;;;;;;;26.17;14.43;;;;;;;;;;5082942;28;20013;-59
2021/01/08 04:18:05;;;;;;;42.42;16.65;;;;;;;;;;5073841;28;20059;-58
2021/01/08 04:20:31;;;;;;;30.00;14.18;;;;;;;;;;5073880;28;20053;-58
2021/01/08 04:22:57;;;;;;;23.52;14.98;;;;;;;;;;5073653;28;20024;-57
2021/01/08 04:25:24;;;;;;;23.17;13.75;;;;;;;;;;5073673;28;20074;-59
2021/01/08 04:27:50;;;;;;;26.40;13.55;;;;;;;;;;5073621;28;20111;-72
2021/01/08 04:30:17;;;;;;;24.80;15.88;;;;;;;;;;5073429;28;20078;-56
2021/01/08 04:32:43;;;;;;;29.08;14.80;;;;;;;;;;5073479;28;20025;-56
2021/01/08 04:35:09;;;;;;;28.25;13.63;;;;;;;;;;5073481;28;20017;-63
2021/01/08 04:37:36;;;;;;;34.92;16.80;;;;;;;;;;5073481;28;20082;-54
2021/01/08 04:40:02;;;;;;;27.10;16.65;;;;;;;;;;5073368;28;20127;-66
2021/01/08 04:42:29;;;;;;;30.13;17.30;;;;;;;;;;5073138;28;20131;-57
2021/01/08 04:44:55;;;;;;;23.17;16.40;;;;;;;;;;5074572;28;20028;-59
2021/01/08 04:47:22;;;;;;;23.98;15.95;;;;;;;;;;5093082;28;20024;-73
2021/01/08 04:49:49;;;;;;;31.88;17.67;;;;;;;;;;5093401;28;20078;-56
2021/01/08 04:52:15;;;;;;;42.50;18.75;;;;;;;;;;5092104;28;20378;-56
2021/01/08 04:54:42;;;;;;;37.63;17.65;;;;;;;;;;5093442;28;20047;-55
2021/01/08 04:57:09;;;;;;;40.45;19.02;;;;;;;;;;5093428;28;20019;-56
2021/01/08 04:59:36;;;;;;;34.67;18.55;;;;;;;;;;5093332;28;20020;-57
2021/01/08 05:02:02;;;;;;;30.42;17.77;;;;;;;;;;5093377;28;20024;-58
2021/01/08 05:04:29;;;;;;;63.63;33.58;;;;;;;;;;5093178;28;20028;-57
2021/01/08 05:06:55;;;;;;;82.25;38.67;;;;;;;;;;5086298;28;20016;-53
2021/01/08 05:09:21;;;;;;;107.55;44.15;;;;;;;;;;5072912;28;20154;-52
2021/01/08 05:11:48;;;;;;;59.03;32.88;;;;;;;;;;5072702;28;20347;-60
2021/01/08 05:14:17;;;;;;;43.53;24.25;;;;;;;;;;5072695;28;20095;-58
2021/01/08 05:16:43;;;;;;;59.92;31.15;;;;;;;;;;5072582;28;20032;-63
2021/01/08 05:19:10;;;;;;;53.05;28.35;;;;;;;;;;5072592;28;20027;-53
2021/01/08 05:21:36;;;;;;;66.38;31.08;;;;;;;;;;5072423;28;20021;-60
2021/01/08 05:24:03;;;;;;;56.22;30.92;;;;;;;;;;5072583;28;20016;-55
2021/01/08 05:26:29;;;;;;;59.67;30.58;;;;;;;;;;5072476;28;20520;-54
2021/01/08 05:29:00;;;;;;;49.85;28.63;;;;;;;;;;5072417;28;20138;-54
2021/01/08 05:31:28;;;;;;;56.17;22.35;;;;;;;;;;5072441;28;20028;-60
2021/01/08 05:33:54;;;;;;;57.90;24.92;;;;;;;;;;5072293;28;20071;-59
2021/01/08 05:36:21;;;;;;;62.28;26.55;;;;;;;;;;5072084;28;20381;-55
2021/01/08 05:38:49;;;;;;;72.60;27.08;;;;;;;;;;5072167;28;20016;-54
2021/01/08 05:41:15;;;;;;;31.58;20.33;;;;;;;;;;5071375;28;20098;-54
2021/01/08 05:43:42;;;;;;;48.55;24.23;;;;;;;;;;5072377;28;20100;-59
2021/01/08 05:46:18;;;;;;;46.40;22.77;;;;;;;;;;5072146;28;20028;-64
2021/01/08 05:48:54;;;;;;;42.13;20.58;;;;;;;;;;5071817;28;20020;-55
2021/01/08 05:51:23;;;;;;;39.00;21.33;;;;;;;;;;5071928;28;20032;-55
2021/01/08 05:53:51;;;;;;;51.33;20.15;;;;;;;;;;5071987;28;20043;-57
2021/01/08 05:56:18;;;;;;;41.28;20.15;;;;;;;;;;5072008;28;20104;-53
2021/01/08 05:58:45;;;;;;;34.20;19.77;;;;;;;;;;5071895;28;20016;-64
2021/01/08 06:01:12;;;;;;;43.35;22.02;;;;;;;;;;5074194;28;20099;-57
2021/01/08 06:03:39;;;;;;;35.58;18.73;;;;;;;;;;5091953;28;20036;-53
2021/01/08 06:06:06;;;;;;;38.28;17.60;;;;;;;;;;5092251;28;20107;-59
2021/01/08 06:08:33;;;;;;;33.10;19.83;;;;;;;;;;5092112;28;20095;-67
2021/01/08 06:11:00;;;;;;;25.33;17.23;;;;;;;;;;5092022;28;20063;-67
2021/01/08 06:13:28;;;;;;;35.85;17.98;;;;;;;;;;5090324;28;20103;-57
2021/01/08 06:15:55;;;;;;;45.63;23.23;;;;;;;;;;5091987;28;20535;-60
2021/01/08 06:18:23;;;;;;;33.70;20.63;;;;;;;;;;5092005;28;20024;-70
2021/01/08 06:20:50;;;;;;;35.85;18.05;;;;;;;;;;5078531;28;20422;-55
2021/01/08 06:23:35;;;;;;;46.95;21.10;;;;;;;;;;5071751;28;20035;-66
2021/01/08 06:26:01;;;;;;;39.33;21.42;;;;;;;;;;5071760;28;20401;-70
2021/01/08 06:28:34;;;;;;;38.15;17.88;;;;;;;;;;5071743;28;20032;-68
2021/01/08 06:31:04;;;;;;;35.70;17.77;;;;;;;;;;5071997;28;20029;-60
2021/01/08 06:33:34;;;;;;;28.10;16.27;;;;;;;;;;5071896;28;20107;-69
2021/01/08 06:36:10;;;;;;;39.45;15.68;;;;;;;;;;5071578;28;20028;-53
2021/01/08 06:38:37;;;;;;;33.70;14.18;;;;;;;;;;5071667;28;20143;-57
2021/01/08 06:41:07;;;;;;;46.00;19.00;;;;;;;;;;5083831;28;20040;-54
2021/01/08 06:43:34;;;;;;;18.25;12.75;;;;;;;;;;5086772;28;20040;-58
2021/01/08 06:46:02;;;;;;;30.38;14.95;;;;;;;;;;5091822;28;20115;-60
2021/01/08 06:48:29;;;;;;;33.00;16.70;;;;;;;;;;5091493;28;20385;-61
2021/01/08 06:51:02;;;;;;;37.22;17.58;;;;;;;;;;5091487;28;20032;-55
2021/01/08 06:53:29;;;;;;;27.70;13.65;;;;;;;;;;5094034;28;20423;-55
2021/01/08 06:55:55;;;;;;;28.15;11.88;;;;;;;;;;5095742;28;20358;-56
2021/01/08 06:58:22;;;;;;;30.58;15.68;;;;;;;;;;5095607;28;20048;-58
2021/01/08 07:00:50;;;;;;;35.28;17.73;;;;;;;;;;5095943;28;20020;-58
2021/01/08 07:03:17;;;;;;;22.08;13.50;;;;;;;;;;5095470;28;20034;-58
2021/01/08 07:05:45;;;;;;;36.10;16.67;;;;;;;;;;5095650;28;20426;-54
2021/01/08 07:08:12;;;;;;;26.85;12.35;;;;;;;;;;5078118;28;20478;-53
2021/01/08 07:10:38;;;;;;;31.35;13.80;;;;;;;;;;5075026;28;20028;-52
2021/01/08 07:13:04;;;;;;;28.80;14.90;;;;;;;;;;5075136;28;20017;-56
2021/01/08 07:15:33;;;;;;;28.48;15.68;;;;;;;;;;5074976;28;20124;-54
2021/01/08 07:17:59;;;;;;;24.75;13.27;;;;;;;;;;5074885;28;20028;-53
2021/01/08 07:20:26;;;;;;;31.60;14.82;;;;;;;;;;5074923;28;20021;-54
2021/01/08 07:22:54;;;;;;;23.83;12.68;;;;;;;;;;5074928;28;20020;-55
2021/01/08 07:25:21;;;;;;;26.73;13.73;;;;;;;;;;5074674;28;20074;-56
2021/01/08 07:27:48;;;;;;;25.45;12.27;;;;;;;;;;5074869;28;20016;-58
2021/01/08 07:30:14;;;;;;;22.67;12.65;;;;;;;;;;5074685;28;20028;-54
2021/01/08 07:32:44;;;;;;;26.70;13.38;;;;;;;;;;5074768;28;20470;-56
2021/01/08 07:35:17;;;;;;;35.08;12.82;;;;;;;;;;5074652;28;20366;-54
2021/01/08 07:37:59;;;;;;;22.25;10.15;;;;;;;;;;5074645;28;20016;-56
2021/01/08 07:40:26;;;;;;;27.00;12.18;;;;;;;;;;5073281;28;20378;-53
2021/01/08 07:42:59;;;;;;;23.48;12.80;;;;;;;;;;5074425;28;20040;-54
2021/01/08 07:45:44;;;;;;;34.35;14.68;;;;;;;;;;5074584;28;20027;-55
2021/01/08 07:48:27;;;;;;;22.77;15.40;;;;;;;;;;5074888;28;20028;-72
2021/01/08 07:51:00;;;;;;;26.83;13.90;;;;;;;;;;5073067;28;20074;-56
2021/01/08 07:53:42;;;;;;;21.88;12.77;;;;;;;;;;5074518;28;20020;-60
2021/01/08 07:56:18;;;;;;;29.48;14.23;;;;;;;;;;5074536;28;20016;-64
2021/01/08 07:59:04;;;;;;;32.67;15.02;;;;;;;;;;5074512;28;20096;-65
2021/01/08 08:01:31;;;;;;;22.30;15.63;;;;;;;;;;5074222;28;20031;-57
2021/01/08 08:04:02;;;;;;;21.08;12.98;;;;;;;;;;5073609;28;20024;-55
2021/01/08 08:06:29;;;;;;;25.90;13.40;;;;;;;;;;5074028;28;20020;-53
2021/01/08 08:08:58;;;;;;;41.50;16.75;;;;;;;;;;5073869;28;20040;-53
2021/01/08 08:11:27;;;;;;;31.90;15.15;;;;;;;;;;5074932;28;20024;-57
2021/01/08 08:13:54;;;;;;;45.17;16.42;;;;;;;;;;5092035;28;20059;-53
2021/01/08 08:16:33;;;;;;;26.48;13.88;;;;;;;;;;5084720;28;20046;-53
2021/01/08 08:18:59;;;;;;;30.05;13.95;;;;;;;;;;5083403;28;20055;-54
2021/01/08 08:21:26;;;;;;;33.05;16.48;;;;;;;;;;5084799;28;20024;-54
2021/01/08 08:23:52;;;;;;;23.50;15.95;;;;;;;;;;5082195;28;20802;-53
2021/01/08 08:26:19;;;;;;;33.97;17.52;;;;;;;;;;5083069;28;20786;-53
2021/01/08 08:28:57;;;;;;;29.77;15.45;;;;;;;;;;5084461;28;20044;-53
2021/01/08 08:31:25;;;;;;;34.03;20.08;;;;;;;;;;5084171;28;20030;-53
2021/01/08 08:33:51;;;;;;;39.78;20.48;;;;;;;;;;5085742;28;20381;-53
2021/01/08 08:36:27;;;;;;;34.90;20.17;;;;;;;;;;5087676;28;20063;-53
2021/01/08 08:38:57;;;;;;;45.13;17.98;;;;;;;;;;5090795;28;20485;-57
2021/01/08 08:41:24;;;;;;;22.08;11.80;;;;;;;;;;5089366;28;20083;-57
2021/01/08 08:43:59;;;;;;;47.55;19.67;;;;;;;;;;5092596;28;20024;-56
2021/01/08 08:46:26;;;;;;;32.03;17.60;;;;;;;;;;5092539;28;20468;-55
2021/01/08 08:48:53;;;;;;;44.65;18.33;;;;;;;;;;5093129;28;20028;-56
2021/01/08 08:51:26;;;;;;;43.88;21.35;;;;;;;;;;5068678;28;20040;-56
2021/01/08 08:53:59;;;;;;;29.83;18.20;;;;;;;;;;5070247;28;20043;-60
2021/01/08 08:56:25;;;;;;;29.60;17.30;;;;;;;;;;5071739;28;20027;-59
2021/01/08 08:58:52;;;;;;;46.13;18.55;;;;;;;;;;5073239;28;20690;-55
2021/01/08 09:01:19;;;;;;;55.90;21.85;;;;;;;;;;5073006;28;20025;-59
2021/01/08 09:03:45;;;;;;;40.83;16.95;;;;;;;;;;5072184;28;20032;-55
2021/01/08 09:06:12;;;;;;;34.08;18.63;;;;;;;;;;5073509;28;20032;-57
2021/01/08 09:08:41;;;;;;;37.85;19.50;;;;;;;;;;5093190;28;20474;-58
2021/01/08 09:11:10;;;;;;;34.92;21.27;;;;;;;;;;5092065;28;20043;-56
2021/01/08 09:13:40;;;;;;;48.22;21.88;;;;;;;;;;5093027;28;20016;-62
2021/01/08 09:16:15;;;;;;;33.28;19.38;;;;;;;;;;5092053;28;20020;-54
2021/01/08 09:18:50;;;;;;;45.90;19.55;;;;;;;;;;5092784;28;20028;-57
2021/01/08 09:21:16;;;;;;;29.33;17.35;;;;;;;;;;5093116;28;20027;-57
2021/01/08 09:23:44;;;;;;;37.00;20.33;;;;;;;;;;5084082;28;20089;-62
2021/01/08 09:26:11;;;;;;;34.83;18.52;;;;;;;;;;5072710;28;20048;-54
2021/01/08 09:28:44;;;;;;;48.95;23.17;;;;;;;;;;5072593;28;20136;-54
2021/01/08 09:31:11;;;;;;;37.88;20.50;;;;;;;;;;5072111;28;20058;-53
2021/01/08 09:33:37;;;;;;;29.52;18.63;;;;;;;;;;5072385;28;20021;-54
2021/01/08 09:36:04;;;;;;;36.10;20.70;;;;;;;;;;5072335;28;20020;-56
2021/01/08 09:38:31;;;;;;;32.28;16.23;;;;;;;;;;5072268;28;20096;-57
2021/01/08 09:40:57;;;;;;;43.95;19.98;;;;;;;;;;5072080;28;20087;-56
2021/01/08 09:43:24;;;;;;;31.30;16.17;;;;;;;;;;5090007;28;20389;-53
2021/01/08 09:46:03;;;;;;;43.85;22.40;;;;;;;;;;5091894;28;20499;-66
2021/01/08 09:48:29;;;;;;;45.10;17.67;;;;;;;;;;5092613;28;20547;-53
2021/01/08 09:51:05;;;;;;;35.05;15.43;;;;;;;;;;5092103;28;20028;-59
2021/01/08 09:53:34;;;;;;;24.40;15.82;;;;;;;;;;5092037;28;20052;-57
2021/01/08 09:56:14;;;;;;;39.78;19.45;;;;;;;;;;5092123;28;20032;-57
2021/01/08 09:58:40;;;;;;;31.95;17.30;;;;;;;;;;5092126;28;20031;-54
2021/01/08 10:01:08;;;;;;;29.00;16.73;;;;;;;;;;5092080;28;20361;-56
2021/01/08 10:03:35;;;;;;;35.47;20.77;;;;;;;;;;5092017;28;20074;-58
2021/01/08 10:06:10;;;;;;;36.05;16.98;;;;;;;;;;5092136;28;20385;-62
2021/01/08 10:08:37;;;;;;;31.00;16.17;;;;;;;;;;5092063;28;20028;-65
2021/01/08 10:11:04;;;;;;;31.23;14.10;;;;;;;;;;5092004;28;20481;-63
2021/01/08 10:13:32;;;;;;;29.83;18.58;;;;;;;;;;5092121;28;20481;-60
2021/01/08 10:16:05;;;;;;;34.80;17.08;;;;;;;;;;5092044;28;20016;-54
2021/01/08 10:18:33;;;;;;;35.03;17.90;;;;;;;;;;5091960;28;20079;-54
2021/01/08 10:21:03;;;;;;;28.92;17.15;;;;;;;;;;5091759;28;20538;-55
2021/01/08 10:23:30;;;;;;;35.83;16.17;;;;;;;;;;5091795;28;20039;-55
2021/01/08 10:26:11;;;;;;;36.53;13.60;;;;;;;;;;5072239;28;20494;-58
2021/01/08 10:28:47;;;;;;;36.65;18.60;;;;;;;;;;5071571;28;20048;-53
2021/01/08 10:31:14;;;;;;;38.25;19.88;;;;;;;;;;5071411;28;20028;-53
2021/01/08 10:33:41;;;;;;;32.35;18.75;;;;;;;;;;5071807;28;20059;-61
2021/01/08 10:36:07;;;;;;;49.35;23.55;;;;;;;;;;5071743;28;20374;-55
2021/01/08 10:38:33;;;;;;;36.30;17.55;;;;;;;;;;5071558;28;20527;-56
2021/01/08 10:41:00;;;;;;;37.05;20.52;;;;;;;;;;5071463;28;20059;-59
2021/01/08 10:43:26;;;;;;;30.45;17.33;;;;;;;;;;5071476;28;20021;-55
2021/01/08 10:45:53;;;;;;;36.85;19.30;;;;;;;;;;5077079;28;20055;-60
2021/01/08 10:48:19;;;;;;;39.25;16.90;;;;;;;;;;5080942;28;20029;-61
2021/01/08 10:50:47;;;;;;;36.45;20.17;;;;;;;;;;5079239;28;20119;-62
2021/01/08 10:53:13;;;;;;;34.38;16.50;;;;;;;;;;5090160;28;20016;-69
2021/01/08 10:55:40;;;;;;;33.55;16.50;;;;;;;;;;5091118;28;20350;-59
2021/01/08 10:58:06;;;;;;;39.95;17.10;;;;;;;;;;5091597;28;20024;-62
2021/01/08 11:00:32;;;;;;;46.60;16.38;;;;;;;;;;5091057;28;20078;-61
2021/01/08 11:02:59;;;;;;;26.15;14.82;;;;;;;;;;5091336;28;20024;-65
2021/01/08 11:05:25;;;;;;;32.53;15.25;;;;;;;;;;5091065;28;20420;-62
2021/01/08 11:07:51;;;;;;;37.20;19.23;;;;;;;;;;5090777;28;20028;-56
2021/01/08 11:10:18;;;;;;;38.58;19.05;;;;;;;;;;5091102;28;20500;-59
2021/01/08 11:12:44;;;;;;;38.75;18.75;;;;;;;;;;5088658;28;20070;-58
2021/01/08 11:15:10;;;;;;;38.85;21.33;;;;;;;;;;5083727;28;20535;-63
2021/01/08 11:17:37;;;;;;;45.20;18.83;;;;;;;;;;5088405;28;20112;-68
2021/01/08 11:20:04;;;;;;;52.83;21.50;;;;;;;;;;5091249;28;20028;-53
2021/01/08 11:22:30;;;;;;;44.90;21.15;;;;;;;;;;5091049;28;20020;-53
2021/01/08 11:24:57;;;;;;;42.65;21.83;;;;;;;;;;5091211;28;20381;-58
2021/01/08 11:27:23;;;;;;;41.53;18.40;;;;;;;;;;5091112;28;20024;-62
2021/01/08 11:29:49;;;;;;;43.20;25.92;;;;;;;;;;5083499;28;20035;-58
2021/01/08 11:32:16;;;;;;;44.08;21.42;;;;;;;;;;5070978;28;20420;-57
2021/01/08 11:34:42;;;;;;;53.65;25.25;;;;;;;;;;5070869;28;20024;-54
2021/01/08 11:37:09;;;;;;;38.80;23.13;;;;;;;;;;5070906;28;20025;-56
2021/01/08 11:39:35;;;;;;;56.85;24.88;;;;;;;;;;5073288;28;20032;-54
2021/01/08 11:42:02;;;;;;;46.15;23.60;;;;;;;;;;5074403;28;20106;-52
2021/01/08 11:44:28;;;;;;;41.65;23.27;;;;;;;;;;5074341;28;20093;-53
2021/01/08 11:46:54;;;;;;;61.03;29.13;;;;;;;;;;5074527;28;20031;-57
2021/01/08 11:49:20;;;;;;;42.60;22.17;;;;;;;;;;5074901;28;20078;-57
2021/01/08 11:51:47;;;;;;;38.83;22.27;;;;;;;;;;5074842;28;20064;-58
2021/01/08 11:54:14;;;;;;;52.13;24.60;;;;;;;;;;5073418;28;20024;-72
2021/01/08 11:56:40;;;;;;;41.75;24.60;;;;;;;;;;5074781;28;20028;-61
2021/01/08 11:59:07;;;;;;;47.80;22.27;;;;;;;;;;5074360;28;20025;-54
2021/01/08 12:01:33;;;;;;;58.50;26.23;;;;;;;;;;5074192;28;20029;-56
2021/01/08 12:04:00;;;;;;;53.28;19.80;;;;;;;;;;5073870;28;20099;-58
2021/01/08 12:06:30;;;;;;;48.78;19.30;;;;;;;;;;5074106;28;20150;-61
2021/01/08 12:08:57;;;;;;;33.83;23.42;;;;;;;;;;5074300;28;20307;-53
2021/01/08 12:11:24;;;;;;;42.17;20.80;;;;;;;;;;5073993;28;20086;-55
2021/01/08 12:13:50;;;;;;;37.47;19.80;;;;;;;;;;5074304;28;20059;-59
2021/01/08 12:16:26;;;;;;;33.85;20.88;;;;;;;;;;5074081;28;20025;-60
2021/01/08 12:18:53;;;;;;;49.22;25.25;;;;;;;;;;5075136;28;20020;-59
2021/01/08 12:21:22;;;;;;;43.92;23.05;;;;;;;;;;5074767;28;20032;-58
2021/01/08 12:23:48;;;;;;;41.97;21.92;;;;;;;;;;5073910;28;20032;-58
2021/01/08 12:26:15;;;;;;;53.05;22.40;;;;;;;;;;5073576;28;20030;-57
2021/01/08 12:28:41;;;;;;;48.97;23.20;;;;;;;;;;5073586;28;20028;-63
2021/01/08 12:31:08;;;;;;;38.38;22.55;;;;;;;;;;5073653;28;20021;-57
2021/01/08 12:33:34;;;;;;;32.30;19.35;;;;;;;;;;5073534;28;20052;-59
2021/01/08 12:36:01;;;;;;;40.80;21.63;;;;;;;;;;5073674;28;20504;-58
2021/01/08 12:38:27;;;;;;;47.60;26.30;;;;;;;;;;5073316;28;20020;-58
2021/01/08 12:40:54;;;;;;;60.63;26.23;;;;;;;;;;5072880;28;20040;-58
2021/01/08 12:43:21;;;;;;;51.03;22.58;;;;;;;;;;5073343;28;20017;-58
2021/01/08 12:45:47;;;;;;;46.58;25.40;;;;;;;;;;5073305;28;20016;-58
2021/01/08 12:48:14;;;;;;;45.63;28.35;;;;;;;;;;5073215;28;20024;-58
2021/01/08 12:50:40;;;;;;;46.00;27.58;;;;;;;;;;5073149;28;20126;-58
2021/01/08 12:53:06;;;;;;;47.28;25.65;;;;;;;;;;5073051;28;20032;-57
2021/01/08 12:55:33;;;;;;;57.25;28.13;;;;;;;;;;5072970;28;20078;-67
2021/01/08 12:58:02;;;;;;;55.80;25.90;;;;;;;;;;5072944;28;20028;-57
2021/01/08 13:00:28;;;;;;;45.92;22.75;;;;;;;;;;5073140;28;20032;-58
2021/01/08 13:03:10;;;;;;;39.17;25.90;;;;;;;;;;5073049;28;20058;-58
2021/01/08 13:05:36;;;;;;;32.95;22.67;;;;;;;;;;5073020;28;20802;-56
2021/01/08 13:08:02;;;;;;;50.58;24.73;;;;;;;;;;5072911;28;20143;-57
2021/01/08 13:10:29;;;;;;;64.40;30.48;;;;;;;;;;5072990;28;20099;-54
2021/01/08 13:12:56;;;;;;;78.72;39.17;;;;;;;;;;5072595;28;20036;-55
2021/01/08 13:15:22;;;;;;;67.95;30.98;;;;;;;;;;5072821;28;20019;-56
2021/01/08 13:17:48;;;;;;;66.72;31.52;;;;;;;;;;5072780;28;20054;-53
2021/01/08 13:23:02;;;;;;;52.65;29.42;;;;;;;;;;5072684;28;20081;-54
2021/01/08 13:25:29;;;;;;;47.10;32.25;;;;;;;;;;5072423;28;20051;-55
2021/01/08 13:27:55;;;;;;;49.97;29.88;;;;;;;;;;5072560;28;20058;-54
2021/01/08 13:30:22;;;;;;;64.38;37.63;;;;;;;;;;5072417;28;20420;-56
2021/01/08 13:32:48;;;;;;;50.28;33.25;;;;;;;;;;5072305;28;20103;-58
2021/01/08 13:35:15;;;;;;;53.72;31.65;;;;;;;;;;5072287;28;20021;-55
2021/01/08 13:37:42;;;;;;;59.72;31.20;;;;;;;;;;5072277;28;20073;-54
2021/01/08 13:40:09;;;;;;;53.45;28.85;;;;;;;;;;5072130;28;20075;-54
2021/01/08 13:42:36;;;;;;;59.72;35.50;;;;;;;;;;5072012;28;20048;-55
2021/01/08 13:45:03;;;;;;;61.70;31.40;;;;;;;;;;5072216;28;20044;-54
2021/01/08 13:47:29;;;;;;;67.18;38.00;;;;;;;;;;5071973;28;20074;-54
2021/01/08 13:49:56;;;;;;;56.30;34.05;;;;;;;;;;5072078;28;20056;-56
2021/01/08 13:52:24;;;;;;;69.28;35.97;;;;;;;;;;5071849;28;20043;-64
2021/01/08 13:54:50;;;;;;;75.55;36.15;;;;;;;;;;5071796;28;20020;-61
2021/01/08 13:57:16;;;;;;;55.42;36.03;;;;;;;;;;5071940;28;20021;-56
2021/01/08 13:59:44;;;;;;;77.53;41.00;;;;;;;;;;5071814;28;20024;-54
2021/01/08 14:02:10;;;;;;;68.00;39.75;;;;;;;;;;5071351;28;20107;-55
2021/01/08 14:04:36;;;;;;;60.78;38.58;;;;;;;;;;5071936;28;20052;-56
2021/01/08 14:07:03;;;;;;;72.13;36.88;;;;;;;;;;5071461;28;20020;-55
2021/01/08 14:09:30;;;;;;;69.28;40.13;;;;;;;;;;5071789;28;20031;-54
2021/01/08 14:12:00;;;;;;;68.88;40.42;;;;;;;;;;5071309;28;20078;-58
2021/01/08 14:14:27;;;;;;;62.83;42.55;;;;;;;;;;5072741;28;20496;-61
2021/01/08 14:16:53;;;;;;;86.07;43.50;;;;;;;;;;5071627;28;20029;-61
2021/01/08 14:19:19;;;;;;;71.85;45.28;;;;;;;;;;5071679;28;20474;-59
2021/01/08 14:21:46;;;;;;;71.05;39.40;;;;;;;;;;5071645;28;20033;-59